KEND/END METAR and TAF weather

Enter ICAO airport designator
Station Type Date Time Source
KEND METAR 2019/02/17 14:56 UTC NOAA

KEND 171456Z AUTO 26006KT 9SM CLR M03/M03 A2997 RMK AO2 SNE02 SLP164 P0000 60000 T10291029 52033 $


Station Type Date Time Source
KEND Decoded METAR 2019/02/17 14:56 UTC NOAA

Vance Air Force Base / Enid, OK, United States (KEND) 36-20N 097-55W
Feb 17, 2019 - 09:56 AM EST / 2019.02.17 1456 UTC
Wind: from the W (260 degrees) at 7 MPH (6 KT):0
Visibility: 9 mile(s):0
Sky conditions: clear
Precipitation last hour: A trace
Temperature: 26.8 F (-2.9 C)
Windchill: 19 F (-7 C):1
Dew Point: 26.8 F (-2.9 C)
Relative Humidity: 100%
Pressure (altimeter): 29.97 in. Hg (1014 hPa)
Pressure tendency: 0.10 inches (3.3 hPa) higher than three hours ago
ob: KEND 171456Z AUTO 26006KT 9SM CLR M03/M03 A2997 RMK AO2 SNE02 SLP164 P0000 60000 T10291029 52033
cycle: 15

Station Type Date Time Source
KEND TAF 2019/02/16 23:00 UTC NOAA

TAF TAF
AMD KEND 152355Z 1523/1701 01012KT 9999 BKN012 620123 QNH2990INS
BECMG 1611/1612 05009KT 9999 BKN015 OVC150 620154 QNH2987INS
BECMG 1614/1615 09009KT 9999 OVC015 620154 QNH2966INS
BECMG 1620/1621 13009KT 9999 BKN020 OVC080 QNH2964INS TXM04/1523Z TNM07/1605Z LAST NO
AMDS AFT 1600 NEXT 1911


Example: see airport list